sensor_id;sensor_type;location;lat;lon;timestamp;temperature;humidity
32502;DHT22;18952;52.516;13.460;2023-01-04T00:01:50;4.10;99.90
32502;DHT22;18952;52.516;13.460;2023-01-04T00:04:17;4.10;99.90
32502;DHT22;18952;52.516;13.460;2023-01-04T00:06:44;4.10;99.90
32502;DHT22;18952;52.516;13.460;2023-01-04T00:09:10;4.00;99.90
32502;DHT22;18952;52.516;13.460;2023-01-04T00:11:37;4.00;99.90
32502;DHT22;18952;52.516;13.460;2023-01-04T00:14:04;4.00;99.90
32502;DHT22;18952;52.516;13.460;2023-01-04T00:16:31;4.00;99.90
32502;DHT22;18952;52.516;13.460;2023-01-04T00:18:58;4.00;99.90
32502;DHT22;18952;52.516;13.460;2023-01-04T00:21:27;4.00;99.90
32502;DHT22;18952;52.516;13.460;2023-01-04T00:23:57;4.00;99.90
32502;DHT22;18952;52.516;13.460;2023-01-04T00:26:27;4.00;99.90
32502;DHT22;18952;52.516;13.460;2023-01-04T00:28:56;4.00;99.90
32502;DHT22;18952;52.516;13.460;2023-01-04T00:31:23;4.00;99.90
32502;DHT22;18952;52.516;13.460;2023-01-04T00:33:55;3.90;99.90
32502;DHT22;18952;52.516;13.460;2023-01-04T00:36:23;3.90;99.90
32502;DHT22;18952;52.516;13.460;2023-01-04T00:38:50;3.90;99.90
32502;DHT22;18952;52.516;13.460;2023-01-04T00:41:17;3.90;99.90
32502;DHT22;18952;52.516;13.460;2023-01-04T00:44:05;3.90;99.90
32502;DHT22;18952;52.516;13.460;2023-01-04T00:46:32;3.90;99.90
32502;DHT22;18952;52.516;13.460;2023-01-04T00:49:00;3.80;99.90
32502;DHT22;18952;52.516;13.460;2023-01-04T00:51:28;3.90;99.90
32502;DHT22;18952;52.516;13.460;2023-01-04T00:53:56;3.90;99.90
32502;DHT22;18952;52.516;13.460;2023-01-04T00:56:23;3.80;99.90
32502;DHT22;18952;52.516;13.460;2023-01-04T00:58:56;3.80;99.90
32502;DHT22;18952;52.516;13.460;2023-01-04T01:01:24;3.80;99.90
32502;DHT22;18952;52.516;13.460;2023-01-04T01:03:56;3.80;99.90
32502;DHT22;18952;52.516;13.460;2023-01-04T01:06:25;3.80;99.90
32502;DHT22;18952;52.516;13.460;2023-01-04T01:08:53;3.90;99.90
32502;DHT22;18952;52.516;13.460;2023-01-04T01:11:20;3.90;99.90
32502;DHT22;18952;52.516;13.460;2023-01-04T01:13:48;3.90;99.90
32502;DHT22;18952;52.516;13.460;2023-01-04T01:16:19;3.90;99.90
32502;DHT22;18952;52.516;13.460;2023-01-04T01:19:06;3.90;99.90
32502;DHT22;18952;52.516;13.460;2023-01-04T01:21:33;3.90;99.90
32502;DHT22;18952;52.516;13.460;2023-01-04T01:24:00;4.00;99.90
32502;DHT22;18952;52.516;13.460;2023-01-04T01:26:27;3.90;99.90
32502;DHT22;18952;52.516;13.460;2023-01-04T01:28:53;3.90;99.90
32502;DHT22;18952;52.516;13.460;2023-01-04T01:31:25;4.00;99.90
32502;DHT22;18952;52.516;13.460;2023-01-04T01:33:54;4.00;99.90
32502;DHT22;18952;52.516;13.460;2023-01-04T01:36:23;3.90;99.90
32502;DHT22;18952;52.516;13.460;2023-01-04T01:38:50;4.00;99.90
32502;DHT22;18952;52.516;13.460;2023-01-04T01:41:23;4.00;99.90
32502;DHT22;18952;52.516;13.460;2023-01-04T01:48:51;4.00;99.90
32502;DHT22;18952;52.516;13.460;2023-01-04T01:51:20;4.00;99.90
32502;DHT22;18952;52.516;13.460;2023-01-04T01:53:52;4.00;99.90
32502;DHT22;18952;52.516;13.460;2023-01-04T01:56:20;4.00;99.90
32502;DHT22;18952;52.516;13.460;2023-01-04T01:58:51;4.00;99.90
32502;DHT22;18952;52.516;13.460;2023-01-04T02:01:18;4.00;99.90
32502;DHT22;18952;52.516;13.460;2023-01-04T02:03:45;4.00;99.90
32502;DHT22;18952;52.516;13.460;2023-01-04T02:06:17;4.00;99.90
32502;DHT22;18952;52.516;13.460;2023-01-04T02:08:44;4.00;99.90
32502;DHT22;18952;52.516;13.460;2023-01-04T02:11:12;4.00;99.90
32502;DHT22;18952;52.516;13.460;2023-01-04T02:13:40;4.00;99.90
32502;DHT22;18952;52.516;13.460;2023-01-04T02:16:33;3.90;99.90
32502;DHT22;18952;52.516;13.460;2023-01-04T02:27:28;3.90;99.90
32502;DHT22;18952;52.516;13.460;2023-01-04T02:38:29;3.80;99.90
32502;DHT22;18952;52.516;13.460;2023-01-04T02:44:18;3.80;99.90
32502;DHT22;18952;52.516;13.460;2023-01-04T02:47:15;3.80;99.90
32502;DHT22;18952;52.516;13.460;2023-01-04T02:49:40;3.80;99.90
32502;DHT22;18952;52.516;13.460;2023-01-04T02:52:07;3.70;99.90
32502;DHT22;18952;52.516;13.460;2023-01-04T02:54:34;3.70;99.90
32502;DHT22;18952;52.516;13.460;2023-01-04T03:00:05;3.70;99.90
32502;DHT22;18952;52.516;13.460;2023-01-04T03:03:03;3.70;99.90
32502;DHT22;18952;52.516;13.460;2023-01-04T03:08:29;3.70;99.90
32502;DHT22;18952;52.516;13.460;2023-01-04T03:11:06;3.70;99.90
32502;DHT22;18952;52.516;13.460;2023-01-04T03:13:40;3.60;99.90
32502;DHT22;18952;52.516;13.460;2023-01-04T03:16:17;3.60;99.90
32502;DHT22;18952;52.516;13.460;2023-01-04T03:18:49;3.60;99.90
32502;DHT22;18952;52.516;13.460;2023-01-04T03:21:18;3.60;99.90
32502;DHT22;18952;52.516;13.460;2023-01-04T03:23:48;3.50;99.90
32502;DHT22;18952;52.516;13.460;2023-01-04T03:26:20;3.50;99.90
32502;DHT22;18952;52.516;13.460;2023-01-04T03:28:49;3.50;99.90
32502;DHT22;18952;52.516;13.460;2023-01-04T03:33:55;3.60;99.90
32502;DHT22;18952;52.516;13.460;2023-01-04T03:36:35;3.50;99.90
32502;DHT22;18952;52.516;13.460;2023-01-04T03:39:15;3.50;99.90
32502;DHT22;18952;52.516;13.460;2023-01-04T03:41:52;3.50;99.90
32502;DHT22;18952;52.516;13.460;2023-01-04T03:44:28;3.50;99.90
32502;DHT22;18952;52.516;13.460;2023-01-04T03:47:05;3.50;99.90
32502;DHT22;18952;52.516;13.460;2023-01-04T03:49:43;3.50;99.90
32502;DHT22;18952;52.516;13.460;2023-01-04T03:52:12;3.50;99.90
32502;DHT22;18952;52.516;13.460;2023-01-04T03:54:44;3.50;99.90
32502;DHT22;18952;52.516;13.460;2023-01-04T03:57:13;3.50;99.90
32502;DHT22;18952;52.516;13.460;2023-01-04T03:59:48;3.50;99.90
32502;DHT22;18952;52.516;13.460;2023-01-04T04:02:22;3.50;99.90
32502;DHT22;18952;52.516;13.460;2023-01-04T04:04:49;3.40;99.90
32502;DHT22;18952;52.516;13.460;2023-01-04T04:07:16;3.40;99.90
32502;DHT22;18952;52.516;13.460;2023-01-04T04:09:43;3.40;99.90
32502;DHT22;18952;52.516;13.460;2023-01-04T04:12:09;3.40;99.90
32502;DHT22;18952;52.516;13.460;2023-01-04T04:14:36;3.40;99.90
32502;DHT22;18952;52.516;13.460;2023-01-04T04:17:03;3.40;99.90
32502;DHT22;18952;52.516;13.460;2023-01-04T04:19:30;3.40;99.90
32502;DHT22;18952;52.516;13.460;2023-01-04T04:21:56;3.40;99.90
32502;DHT22;18952;52.516;13.460;2023-01-04T04:24:24;3.40;99.90
32502;DHT22;18952;52.516;13.460;2023-01-04T04:26:53;3.40;99.90
32502;DHT22;18952;52.516;13.460;2023-01-04T04:29:21;3.40;99.90
32502;DHT22;18952;52.516;13.460;2023-01-04T04:31:48;3.40;99.90
32502;DHT22;18952;52.516;13.460;2023-01-04T04:34:15;3.40;99.90
32502;DHT22;18952;52.516;13.460;2023-01-04T04:36:42;3.40;99.90
32502;DHT22;18952;52.516;13.460;2023-01-04T04:39:10;3.40;99.90
32502;DHT22;18952;52.516;13.460;2023-01-04T04:41:37;3.40;99.90
32502;DHT22;18952;52.516;13.460;2023-01-04T04:44:16;3.40;99.90
32502;DHT22;18952;52.516;13.460;2023-01-04T04:46:43;3.40;99.90
32502;DHT22;18952;52.516;13.460;2023-01-04T04:49:10;3.40;99.90
32502;DHT22;18952;52.516;13.460;2023-01-04T04:51:38;3.40;99.90
32502;DHT22;18952;52.516;13.460;2023-01-04T04:54:07;3.50;99.90
32502;DHT22;18952;52.516;13.460;2023-01-04T04:56:34;3.50;99.90
32502;DHT22;18952;52.516;13.460;2023-01-04T04:59:01;3.50;99.90
32502;DHT22;18952;52.516;13.460;2023-01-04T05:01:28;3.60;99.90
32502;DHT22;18952;52.516;13.460;2023-01-04T05:03:55;3.60;99.90
32502;DHT22;18952;52.516;13.460;2023-01-04T05:06:22;3.60;99.90
32502;DHT22;18952;52.516;13.460;2023-01-04T05:08:49;3.60;99.90
32502;DHT22;18952;52.516;13.460;2023-01-04T05:11:16;3.70;99.90
32502;DHT22;18952;52.516;13.460;2023-01-04T05:13:43;3.70;99.90
32502;DHT22;18952;52.516;13.460;2023-01-04T05:16:09;3.70;99.90
32502;DHT22;18952;52.516;13.460;2023-01-04T05:18:36;3.70;99.90
32502;DHT22;18952;52.516;13.460;2023-01-04T05:21:03;3.70;99.90
32502;DHT22;18952;52.516;13.460;2023-01-04T05:23:30;3.70;99.90
32502;DHT22;18952;52.516;13.460;2023-01-04T05:25:59;3.80;99.90
32502;DHT22;18952;52.516;13.460;2023-01-04T05:28:26;3.80;99.90
32502;DHT22;18952;52.516;13.460;2023-01-04T05:30:53;3.80;99.90
32502;DHT22;18952;52.516;13.460;2023-01-04T05:33:31;3.80;99.90
32502;DHT22;18952;52.516;13.460;2023-01-04T05:36:00;3.80;99.90
32502;DHT22;18952;52.516;13.460;2023-01-04T05:38:28;3.80;99.90
32502;DHT22;18952;52.516;13.460;2023-01-04T05:40:55;3.90;99.90
32502;DHT22;18952;52.516;13.460;2023-01-04T05:43:23;3.90;99.90
32502;DHT22;18952;52.516;13.460;2023-01-04T05:45:52;4.00;99.90
32502;DHT22;18952;52.516;13.460;2023-01-04T05:48:20;4.00;99.90
32502;DHT22;18952;52.516;13.460;2023-01-04T05:50:47;4.00;99.90
32502;DHT22;18952;52.516;13.460;2023-01-04T05:53:16;4.10;99.90
32502;DHT22;18952;52.516;13.460;2023-01-04T05:55:43;4.10;99.90
32502;DHT22;18952;52.516;13.460;2023-01-04T05:58:10;4.10;99.90
32502;DHT22;18952;52.516;13.460;2023-01-04T06:00:37;4.10;99.90
32502;DHT22;18952;52.516;13.460;2023-01-04T06:03:04;4.20;99.90
32502;DHT22;18952;52.516;13.460;2023-01-04T06:05:31;4.20;99.90
32502;DHT22;18952;52.516;13.460;2023-01-04T06:07:58;4.20;99.90
32502;DHT22;18952;52.516;13.460;2023-01-04T06:10:24;4.20;99.90
32502;DHT22;18952;52.516;13.460;2023-01-04T06:12:51;4.30;99.90
32502;DHT22;18952;52.516;13.460;2023-01-04T06:15:18;4.30;99.90
32502;DHT22;18952;52.516;13.460;2023-01-04T06:17:44;4.30;99.90
32502;DHT22;18952;52.516;13.460;2023-01-04T06:20:11;4.30;99.90
32502;DHT22;18952;52.516;13.460;2023-01-04T06:22:38;4.40;99.90
32502;DHT22;18952;52.516;13.460;2023-01-04T06:25:05;4.40;99.90
32502;DHT22;18952;52.516;13.460;2023-01-04T06:27:32;4.40;99.90
32502;DHT22;18952;52.516;13.460;2023-01-04T06:29:59;4.50;99.90
32502;DHT22;18952;52.516;13.460;2023-01-04T06:32:25;4.50;99.90
32502;DHT22;18952;52.516;13.460;2023-01-04T06:34:52;4.50;99.90
32502;DHT22;18952;52.516;13.460;2023-01-04T06:37:19;4.60;99.90
32502;DHT22;18952;52.516;13.460;2023-01-04T06:39:45;4.60;99.90
32502;DHT22;18952;52.516;13.460;2023-01-04T06:42:12;4.70;99.90
32502;DHT22;18952;52.516;13.460;2023-01-04T06:44:39;4.70;99.90
32502;DHT22;18952;52.516;13.460;2023-01-04T06:47:05;4.70;99.90
32502;DHT22;18952;52.516;13.460;2023-01-04T06:49:32;4.70;99.90
32502;DHT22;18952;52.516;13.460;2023-01-04T06:51:59;4.80;99.90
32502;DHT22;18952;52.516;13.460;2023-01-04T06:54:26;4.80;99.90
32502;DHT22;18952;52.516;13.460;2023-01-04T06:56:53;4.90;99.90
32502;DHT22;18952;52.516;13.460;2023-01-04T06:59:19;4.90;99.90
32502;DHT22;18952;52.516;13.460;2023-01-04T07:01:46;4.90;99.90
32502;DHT22;18952;52.516;13.460;2023-01-04T07:04:13;5.00;99.90
32502;DHT22;18952;52.516;13.460;2023-01-04T07:06:40;5.00;99.90
32502;DHT22;18952;52.516;13.460;2023-01-04T07:09:06;5.00;99.90
32502;DHT22;18952;52.516;13.460;2023-01-04T07:11:33;5.10;99.90
32502;DHT22;18952;52.516;13.460;2023-01-04T07:14:00;5.10;99.90
32502;DHT22;18952;52.516;13.460;2023-01-04T07:16:27;5.20;99.90
32502;DHT22;18952;52.516;13.460;2023-01-04T07:18:53;5.30;99.90
32502;DHT22;18952;52.516;13.460;2023-01-04T07:21:20;5.30;99.90
32502;DHT22;18952;52.516;13.460;2023-01-04T07:23:47;5.30;99.90
32502;DHT22;18952;52.516;13.460;2023-01-04T07:26:14;5.40;99.90
32502;DHT22;18952;52.516;13.460;2023-01-04T07:28:41;5.40;99.90
32502;DHT22;18952;52.516;13.460;2023-01-04T07:31:08;5.50;99.90
32502;DHT22;18952;52.516;13.460;2023-01-04T07:33:35;5.50;99.90
32502;DHT22;18952;52.516;13.460;2023-01-04T07:36:04;5.40;99.90
32502;DHT22;18952;52.516;13.460;2023-01-04T07:38:33;5.40;99.90
32502;DHT22;18952;52.516;13.460;2023-01-04T07:41:00;5.30;99.90
32502;DHT22;18952;52.516;13.460;2023-01-04T07:43:27;5.40;99.90
32502;DHT22;18952;52.516;13.460;2023-01-04T07:45:54;5.30;99.90
32502;DHT22;18952;52.516;13.460;2023-01-04T07:48:21;5.30;99.90
32502;DHT22;18952;52.516;13.460;2023-01-04T07:50:49;5.30;99.90
32502;DHT22;18952;52.516;13.460;2023-01-04T07:53:16;5.30;99.90
32502;DHT22;18952;52.516;13.460;2023-01-04T07:55:43;5.30;99.90
32502;DHT22;18952;52.516;13.460;2023-01-04T07:58:10;5.30;99.90
32502;DHT22;18952;52.516;13.460;2023-01-04T08:00:37;5.20;99.90
32502;DHT22;18952;52.516;13.460;2023-01-04T08:03:04;5.30;99.90
32502;DHT22;18952;52.516;13.460;2023-01-04T08:05:32;5.20;99.90
32502;DHT22;18952;52.516;13.460;2023-01-04T08:07:59;5.30;99.90
32502;DHT22;18952;52.516;13.460;2023-01-04T08:10:26;5.20;99.90
32502;DHT22;18952;52.516;13.460;2023-01-04T08:12:53;5.20;99.90
32502;DHT22;18952;52.516;13.460;2023-01-04T08:15:19;5.20;99.90
32502;DHT22;18952;52.516;13.460;2023-01-04T08:17:46;5.20;99.90
32502;DHT22;18952;52.516;13.460;2023-01-04T08:20:13;5.10;99.90
32502;DHT22;18952;52.516;13.460;2023-01-04T08:22:40;5.20;99.90
32502;DHT22;18952;52.516;13.460;2023-01-04T08:25:07;5.20;99.90
32502;DHT22;18952;52.516;13.460;2023-01-04T08:27:34;5.20;99.90
32502;DHT22;18952;52.516;13.460;2023-01-04T08:30:00;5.20;99.90
32502;DHT22;18952;52.516;13.460;2023-01-04T08:32:27;5.20;99.90
32502;DHT22;18952;52.516;13.460;2023-01-04T08:34:54;5.20;99.90
32502;DHT22;18952;52.516;13.460;2023-01-04T08:37:21;5.20;99.90
32502;DHT22;18952;52.516;13.460;2023-01-04T08:39:47;5.20;99.90
32502;DHT22;18952;52.516;13.460;2023-01-04T08:42:16;5.30;99.90
32502;DHT22;18952;52.516;13.460;2023-01-04T08:44:56;5.20;99.90
32502;DHT22;18952;52.516;13.460;2023-01-04T08:47:27;5.20;99.90
32502;DHT22;18952;52.516;13.460;2023-01-04T08:49:54;5.20;99.90
32502;DHT22;18952;52.516;13.460;2023-01-04T08:52:21;5.30;99.90
32502;DHT22;18952;52.516;13.460;2023-01-04T08:54:50;5.30;99.90
32502;DHT22;18952;52.516;13.460;2023-01-04T08:57:17;5.30;99.90
32502;DHT22;18952;52.516;13.460;2023-01-04T08:59:44;5.30;99.90
32502;DHT22;18952;52.516;13.460;2023-01-04T09:02:23;5.30;99.90
32502;DHT22;18952;52.516;13.460;2023-01-04T09:04:51;5.30;99.90
32502;DHT22;18952;52.516;13.460;2023-01-04T09:07:18;5.40;99.90
32502;DHT22;18952;52.516;13.460;2023-01-04T09:09:45;5.40;99.90
32502;DHT22;18952;52.516;13.460;2023-01-04T09:12:14;5.40;99.90
32502;DHT22;18952;52.516;13.460;2023-01-04T09:14:41;5.40;99.90
32502;DHT22;18952;52.516;13.460;2023-01-04T09:17:09;5.40;99.90
32502;DHT22;18952;52.516;13.460;2023-01-04T09:19:38;5.40;99.90
32502;DHT22;18952;52.516;13.460;2023-01-04T09:22:08;5.40;99.90
32502;DHT22;18952;52.516;13.460;2023-01-04T09:24:36;5.40;99.90
32502;DHT22;18952;52.516;13.460;2023-01-04T09:27:03;5.50;99.90
32502;DHT22;18952;52.516;13.460;2023-01-04T09:29:30;5.50;99.90
32502;DHT22;18952;52.516;13.460;2023-01-04T09:31:57;5.50;99.90
32502;DHT22;18952;52.516;13.460;2023-01-04T09:34:28;5.40;99.90
32502;DHT22;18952;52.516;13.460;2023-01-04T09:36:55;5.50;99.90
32502;DHT22;18952;52.516;13.460;2023-01-04T09:39:22;5.50;99.90
32502;DHT22;18952;52.516;13.460;2023-01-04T09:41:58;5.60;99.90
32502;DHT22;18952;52.516;13.460;2023-01-04T09:44:40;5.60;99.90
32502;DHT22;18952;52.516;13.460;2023-01-04T09:47:52;5.60;99.90
32502;DHT22;18952;52.516;13.460;2023-01-04T09:50:24;5.60;99.90
32502;DHT22;18952;52.516;13.460;2023-01-04T09:53:02;5.60;99.90
32502;DHT22;18952;52.516;13.460;2023-01-04T09:55:35;5.60;99.90
32502;DHT22;18952;52.516;13.460;2023-01-04T09:58:21;5.60;99.90
32502;DHT22;18952;52.516;13.460;2023-01-04T10:01:15;5.60;99.90
32502;DHT22;18952;52.516;13.460;2023-01-04T10:04:16;5.60;99.90
32502;DHT22;18952;52.516;13.460;2023-01-04T10:06:47;5.60;99.90
32502;DHT22;18952;52.516;13.460;2023-01-04T10:09:16;5.60;99.90
32502;DHT22;18952;52.516;13.460;2023-01-04T10:14:38;5.60;99.90
32502;DHT22;18952;52.516;13.460;2023-01-04T10:26:14;5.60;99.90
32502;DHT22;18952;52.516;13.460;2023-01-04T10:28:52;5.70;99.90
32502;DHT22;18952;52.516;13.460;2023-01-04T10:31:45;5.70;99.90
32502;DHT22;18952;52.516;13.460;2023-01-04T10:34:27;5.70;99.90
32502;DHT22;18952;52.516;13.460;2023-01-04T10:37:02;5.70;99.90
32502;DHT22;18952;52.516;13.460;2023-01-04T10:39:34;5.70;99.90
32502;DHT22;18952;52.516;13.460;2023-01-04T10:50:23;5.70;99.90
32502;DHT22;18952;52.516;13.460;2023-01-04T10:53:15;5.80;99.90
32502;DHT22;18952;52.516;13.460;2023-01-04T10:55:52;5.80;99.90
32502;DHT22;18952;52.516;13.460;2023-01-04T11:01:23;5.80;99.90
32502;DHT22;18952;52.516;13.460;2023-01-04T11:04:20;5.80;99.90
32502;DHT22;18952;52.516;13.460;2023-01-04T11:09:46;5.80;99.90
32502;DHT22;18952;52.516;13.460;2023-01-04T11:12:14;5.80;99.90
32502;DHT22;18952;52.516;13.460;2023-01-04T11:14:43;5.90;99.90
32502;DHT22;18952;52.516;13.460;2023-01-04T11:17:12;5.90;99.90
32502;DHT22;18952;52.516;13.460;2023-01-04T11:19:39;5.90;99.90
32502;DHT22;18952;52.516;13.460;2023-01-04T11:22:29;5.90;99.90
32502;DHT22;18952;52.516;13.460;2023-01-04T11:25:02;6.00;99.90
32502;DHT22;18952;52.516;13.460;2023-01-04T11:28:00;6.00;99.90
32502;DHT22;18952;52.516;13.460;2023-01-04T11:30:40;6.00;99.90
32502;DHT22;18952;52.516;13.460;2023-01-04T11:33:17;6.10;99.90
32502;DHT22;18952;52.516;13.460;2023-01-04T11:35:47;6.10;99.90
32502;DHT22;18952;52.516;13.460;2023-01-04T11:38:25;6.10;99.90
32502;DHT22;18952;52.516;13.460;2023-01-04T11:43:33;6.20;99.90
32502;DHT22;18952;52.516;13.460;2023-01-04T11:48:57;6.20;99.90
32502;DHT22;18952;52.516;13.460;2023-01-04T11:54:18;6.30;99.90
32502;DHT22;18952;52.516;13.460;2023-01-04T11:57:03;6.30;99.90
32502;DHT22;18952;52.516;13.460;2023-01-04T11:59:37;6.30;99.90
32502;DHT22;18952;52.516;13.460;2023-01-04T12:02:21;6.30;99.90
32502;DHT22;18952;52.516;13.460;2023-01-04T12:05:19;6.40;99.90
32502;DHT22;18952;52.516;13.460;2023-01-04T12:07:55;6.40;99.90
32502;DHT22;18952;52.516;13.460;2023-01-04T12:10:24;6.40;99.90
32502;DHT22;18952;52.516;13.460;2023-01-04T12:12:53;6.50;99.90
32502;DHT22;18952;52.516;13.460;2023-01-04T12:15:52;6.50;99.90
32502;DHT22;18952;52.516;13.460;2023-01-04T12:18:25;6.50;99.90
32502;DHT22;18952;52.516;13.460;2023-01-04T12:20:52;6.50;99.90
32502;DHT22;18952;52.516;13.460;2023-01-04T12:23:19;6.60;99.90
32502;DHT22;18952;52.516;13.460;2023-01-04T12:25:50;6.60;99.90
32502;DHT22;18952;52.516;13.460;2023-01-04T12:28:36;6.60;99.90
32502;DHT22;18952;52.516;13.460;2023-01-04T12:31:36;6.60;99.90
32502;DHT22;18952;52.516;13.460;2023-01-04T12:47:04;6.60;99.90
32502;DHT22;18952;52.516;13.460;2023-01-04T13:01:32;6.70;99.90
32502;DHT22;18952;52.516;13.460;2023-01-04T13:04:02;6.60;99.90
32502;DHT22;18952;52.516;13.460;2023-01-04T13:06:39;6.60;99.90
32502;DHT22;18952;52.516;13.460;2023-01-04T13:09:16;6.60;99.90
32502;DHT22;18952;52.516;13.460;2023-01-04T13:14:42;6.60;99.90
32502;DHT22;18952;52.516;13.460;2023-01-04T13:17:17;6.50;99.90
32502;DHT22;18952;52.516;13.460;2023-01-04T13:19:45;6.50;99.90
32502;DHT22;18952;52.516;13.460;2023-01-04T13:22:26;6.50;99.90
32502;DHT22;18952;52.516;13.460;2023-01-04T13:24:56;6.50;99.90
32502;DHT22;18952;52.516;13.460;2023-01-04T13:27:27;6.50;99.90
32502;DHT22;18952;52.516;13.460;2023-01-04T13:29:56;6.50;99.90
32502;DHT22;18952;52.516;13.460;2023-01-04T13:32:26;6.50;99.90
32502;DHT22;18952;52.516;13.460;2023-01-04T13:35:11;6.60;99.90
32502;DHT22;18952;52.516;13.460;2023-01-04T13:37:43;6.60;99.90
32502;DHT22;18952;52.516;13.460;2023-01-04T13:42:50;6.60;99.90
32502;DHT22;18952;52.516;13.460;2023-01-04T13:47:58;6.60;99.90
32502;DHT22;18952;52.516;13.460;2023-01-04T13:50:36;6.60;99.90
32502;DHT22;18952;52.516;13.460;2023-01-04T13:53:05;6.70;99.90
32502;DHT22;18952;52.516;13.460;2023-01-04T13:55:36;6.70;99.90
32502;DHT22;18952;52.516;13.460;2023-01-04T13:58:14;6.70;99.90
32502;DHT22;18952;52.516;13.460;2023-01-04T14:09:04;6.70;99.90
32502;DHT22;18952;52.516;13.460;2023-01-04T14:11:47;6.70;99.90
32502;DHT22;18952;52.516;13.460;2023-01-04T14:14:23;6.80;99.90
32502;DHT22;18952;52.516;13.460;2023-01-04T14:16:50;6.70;99.90
32502;DHT22;18952;52.516;13.460;2023-01-04T14:24:53;6.80;99.90
32502;DHT22;18952;52.516;13.460;2023-01-04T14:27:39;6.90;99.90
32502;DHT22;18952;52.516;13.460;2023-01-04T14:35:20;6.90;99.90
32502;DHT22;18952;52.516;13.460;2023-01-04T14:37:47;6.90;99.90
32502;DHT22;18952;52.516;13.460;2023-01-04T14:40:25;6.90;99.90
32502;DHT22;18952;52.516;13.460;2023-01-04T14:42:54;7.00;99.90
32502;DHT22;18952;52.516;13.460;2023-01-04T14:45:21;6.90;99.90
32502;DHT22;18952;52.516;13.460;2023-01-04T14:47:47;7.00;99.90
32502;DHT22;18952;52.516;13.460;2023-01-04T14:50:16;7.10;99.90
32502;DHT22;18952;52.516;13.460;2023-01-04T14:52:50;7.00;99.90
32502;DHT22;18952;52.516;13.460;2023-01-04T14:55:17;7.10;99.90
32502;DHT22;18952;52.516;13.460;2023-01-04T14:57:44;7.10;99.90
32502;DHT22;18952;52.516;13.460;2023-01-04T15:00:15;7.10;99.90
32502;DHT22;18952;52.516;13.460;2023-01-04T15:02:46;7.20;99.90
32502;DHT22;18952;52.516;13.460;2023-01-04T15:05:13;7.20;99.90
32502;DHT22;18952;52.516;13.460;2023-01-04T15:07:40;7.20;99.90
32502;DHT22;18952;52.516;13.460;2023-01-04T15:12:45;7.20;99.90
32502;DHT22;18952;52.516;13.460;2023-01-04T15:15:12;7.20;99.90
32502;DHT22;18952;52.516;13.460;2023-01-04T15:17:39;7.30;99.90
32502;DHT22;18952;52.516;13.460;2023-01-04T15:20:07;7.30;99.90
32502;DHT22;18952;52.516;13.460;2023-01-04T15:22:34;7.30;99.90
32502;DHT22;18952;52.516;13.460;2023-01-04T15:25:01;7.30;99.90
32502;DHT22;18952;52.516;13.460;2023-01-04T15:27:28;7.30;99.90
32502;DHT22;18952;52.516;13.460;2023-01-04T15:30:00;7.30;99.90
32502;DHT22;18952;52.516;13.460;2023-01-04T15:32:27;7.30;99.90
32502;DHT22;18952;52.516;13.460;2023-01-04T15:34:56;7.40;99.90
32502;DHT22;18952;52.516;13.460;2023-01-04T15:37:23;7.40;99.90
32502;DHT22;18952;52.516;13.460;2023-01-04T15:39:51;7.40;99.90
32502;DHT22;18952;52.516;13.460;2023-01-04T15:42:27;7.40;99.90
32502;DHT22;18952;52.516;13.460;2023-01-04T15:44:54;7.40;99.90
32502;DHT22;18952;52.516;13.460;2023-01-04T15:47:21;7.50;99.90
32502;DHT22;18952;52.516;13.460;2023-01-04T15:49:48;7.40;99.90
32502;DHT22;18952;52.516;13.460;2023-01-04T15:52:15;7.50;99.90
32502;DHT22;18952;52.516;13.460;2023-01-04T15:54:42;7.50;99.90
32502;DHT22;18952;52.516;13.460;2023-01-04T15:57:10;7.50;99.90
32502;DHT22;18952;52.516;13.460;2023-01-04T15:59:37;7.60;99.90
32502;DHT22;18952;52.516;13.460;2023-01-04T16:02:05;7.60;99.90
32502;DHT22;18952;52.516;13.460;2023-01-04T16:04:34;7.60;99.90
32502;DHT22;18952;52.516;13.460;2023-01-04T16:07:04;7.60;99.90
32502;DHT22;18952;52.516;13.460;2023-01-04T16:09:31;7.70;99.90
32502;DHT22;18952;52.516;13.460;2023-01-04T16:11:57;7.70;99.90
32502;DHT22;18952;52.516;13.460;2023-01-04T16:14:25;7.70;99.90
32502;DHT22;18952;52.516;13.460;2023-01-04T16:16:53;7.70;99.90
32502;DHT22;18952;52.516;13.460;2023-01-04T16:19:20;7.70;99.90
32502;DHT22;18952;52.516;13.460;2023-01-04T16:21:47;7.70;99.90
32502;DHT22;18952;52.516;13.460;2023-01-04T16:24:14;7.70;99.90
32502;DHT22;18952;52.516;13.460;2023-01-04T16:27:01;7.70;99.90
32502;DHT22;18952;52.516;13.460;2023-01-04T16:29:28;7.70;99.90
32502;DHT22;18952;52.516;13.460;2023-01-04T16:31:55;7.70;99.90
32502;DHT22;18952;52.516;13.460;2023-01-04T16:34:22;7.70;99.90
32502;DHT22;18952;52.516;13.460;2023-01-04T16:36:49;7.70;99.90
32502;DHT22;18952;52.516;13.460;2023-01-04T16:39:18;7.70;99.90
32502;DHT22;18952;52.516;13.460;2023-01-04T16:42:05;7.70;99.90
32502;DHT22;18952;52.516;13.460;2023-01-04T16:44:39;7.70;99.90
32502;DHT22;18952;52.516;13.460;2023-01-04T16:47:06;7.70;99.90
32502;DHT22;18952;52.516;13.460;2023-01-04T16:49:33;7.80;99.90
32502;DHT22;18952;52.516;13.460;2023-01-04T16:52:00;7.80;99.90
32502;DHT22;18952;52.516;13.460;2023-01-04T16:54:27;7.90;99.90
32502;DHT22;18952;52.516;13.460;2023-01-04T16:56:54;7.90;99.90
32502;DHT22;18952;52.516;13.460;2023-01-04T16:59:21;7.90;99.90
32502;DHT22;18952;52.516;13.460;2023-01-04T17:01:48;8.00;99.90
32502;DHT22;18952;52.516;13.460;2023-01-04T17:04:23;7.90;99.90
32502;DHT22;18952;52.516;13.460;2023-01-04T17:06:50;8.00;99.90
32502;DHT22;18952;52.516;13.460;2023-01-04T17:09:19;8.00;99.90
32502;DHT22;18952;52.516;13.460;2023-01-04T17:11:46;8.00;99.90
32502;DHT22;18952;52.516;13.460;2023-01-04T17:14:33;8.10;99.90
32502;DHT22;18952;52.516;13.460;2023-01-04T17:17:00;8.10;99.90
32502;DHT22;18952;52.516;13.460;2023-01-04T17:19:27;8.10;99.90
32502;DHT22;18952;52.516;13.460;2023-01-04T17:21:54;8.20;99.90
32502;DHT22;18952;52.516;13.460;2023-01-04T17:24:21;8.20;99.90
32502;DHT22;18952;52.516;13.460;2023-01-04T17:26:48;8.20;99.90
32502;DHT22;18952;52.516;13.460;2023-01-04T17:29:15;8.20;99.90
32502;DHT22;18952;52.516;13.460;2023-01-04T17:31:43;8.30;99.90
32502;DHT22;18952;52.516;13.460;2023-01-04T17:34:13;8.30;99.90
32502;DHT22;18952;52.516;13.460;2023-01-04T17:36:47;8.40;99.90
32502;DHT22;18952;52.516;13.460;2023-01-04T17:39:14;8.40;99.90
32502;DHT22;18952;52.516;13.460;2023-01-04T17:41:51;8.40;99.90
32502;DHT22;18952;52.516;13.460;2023-01-04T17:44:45;8.40;99.90
32502;DHT22;18952;52.516;13.460;2023-01-04T17:47:20;8.50;99.90
32502;DHT22;18952;52.516;13.460;2023-01-04T17:49:47;8.40;99.90
32502;DHT22;18952;52.516;13.460;2023-01-04T17:52:15;8.40;99.90
32502;DHT22;18952;52.516;13.460;2023-01-04T17:54:47;8.40;99.90